Time;durP1;ratioP1;P1;durP2;ratioP2;P2;SDS_P1;SDS_P2;PMS_P1;PMS_P2;Temp;Humidity;BMP_temperature;BMP_pressure;BME280_temperature;BME280_humidity;BME280_pressure;Samples;Min_cycle;Max_cycle;Signal;HPM_P1;HPM_P2
2022/05/14 00:01:34;;;;;;;7.20;3.53;;;13.20;99.90;;;12.10;99.13;101016.31;4970513;28;20038;-86
2022/05/14 00:04:02;;;;;;;11.25;4.00;;;13.20;99.90;;;12.09;98.84;101009.16;4969412;28;20046;-87
2022/05/14 00:06:31;;;;;;;11.63;4.22;;;13.10;99.90;;;12.05;98.76;101012.41;4971204;28;20126;-86
2022/05/14 00:09:01;;;;;;;13.70;4.65;;;13.10;99.90;;;12.01;98.97;101016.56;4977296;28;20046;-86
2022/05/14 00:14:14;;;;;;;10.73;3.88;;;13.10;99.90;;;11.95;99.38;101022.75;4970627;28;20122;-87
2022/05/14 00:16:43;;;;;;;9.68;3.58;;;13.10;99.90;;;11.94;99.25;101019.16;4970818;28;20050;-87
2022/05/14 00:19:10;;;;;;;10.27;4.18;;;13.00;99.90;;;11.90;99.37;101020.56;4968900;28;20562;-86
2022/05/14 00:21:38;;;;;;;14.73;4.35;;;13.00;99.90;;;11.91;99.48;101016.78;4970660;28;20034;-86
2022/05/14 00:24:07;;;;;;;14.43;4.47;;;12.90;99.90;;;11.87;99.49;101015.44;4976393;28;20070;-86
2022/05/14 00:26:35;;;;;;;11.98;3.97;;;12.90;99.90;;;11.84;99.50;101016.66;4988911;28;20050;-86
2022/05/14 00:29:03;;;;;;;12.27;4.32;;;12.90;99.90;;;11.82;99.32;101013.25;4969628;28;20058;-86
2022/05/14 00:31:31;;;;;;;10.70;4.22;;;12.80;99.90;;;11.78;99.79;101005.59;4970641;28;20051;-88
2022/05/14 00:33:59;;;;;;;11.90;4.15;;;12.80;99.90;;;11.75;99.55;101009.53;4970526;28;20047;-88
2022/05/14 00:36:27;;;;;;;10.95;4.35;;;12.80;99.90;;;11.72;99.97;101008.00;4968553;28;20385;-88
2022/05/14 00:38:54;;;;;;;13.10;4.90;;;12.70;99.90;;;11.73;100.00;101007.00;4976271;28;20051;-87
2022/05/14 00:41:23;;;;;;;13.95;4.70;;;12.70;99.90;;;11.71;100.00;101010.94;4980008;28;20034;-88
2022/05/14 00:43:55;;;;;;;9.52;4.18;;;12.70;99.90;;;11.65;100.00;101012.50;4986537;28;20101;-88
2022/05/14 00:46:26;;;;;;;8.10;3.92;;;12.60;99.90;;;11.65;100.00;101007.06;4971745;28;20042;-88
2022/05/14 00:48:57;;;;;;;11.93;4.50;;;12.60;99.90;;;11.60;100.00;101004.00;4989104;28;20053;-88
2022/05/14 00:51:29;;;;;;;10.52;4.68;;;12.60;99.90;;;11.55;100.00;101006.41;4969810;28;20055;-88
2022/05/14 00:54:03;;;;;;;11.90;4.68;;;12.60;99.90;;;11.51;100.00;101005.91;4955428;29;20043;-88
2022/05/14 00:56:38;;;;;;;9.95;4.60;;;12.60;99.90;;;11.49;100.00;101001.69;4972911;28;20046;-87
2022/05/14 00:59:10;;;;;;;11.27;4.68;;;12.60;99.90;;;11.48;100.00;101013.59;4995003;28;20051;-87
2022/05/14 01:01:39;;;;;;;7.90;4.60;;;12.50;99.90;;;11.44;100.00;101004.09;4989146;28;20078;-88
2022/05/14 01:04:08;;;;;;;15.25;5.20;;;12.50;99.90;;;11.43;100.00;101007.84;4960726;28;20059;-87
2022/05/14 01:06:39;;;;;;;10.07;4.72;;;12.50;99.90;;;11.41;100.00;101005.31;4970708;28;20392;-88
2022/05/14 01:09:07;;;;;;;10.88;4.95;;;12.50;99.90;;;11.41;100.00;100999.00;4972709;28;20127;-88
2022/05/14 01:11:38;;;;;;;11.15;4.57;;;12.50;99.90;;;11.43;100.00;101007.84;4973517;28;20042;-86
2022/05/14 01:14:06;;;;;;;12.05;4.95;;;12.50;99.90;;;11.38;100.00;101002.91;4981156;28;20058;-88
2022/05/14 01:16:36;;;;;;;11.85;5.32;;;12.50;99.90;;;11.34;100.00;101002.44;4980487;28;20574;-88
2022/05/14 01:19:05;;;;;;;14.88;5.55;;;12.40;99.90;;;11.31;100.00;100994.63;4972893;28;20519;-88
2022/05/14 01:21:48;;;;;;;11.88;5.25;;;12.40;99.90;;;11.27;100.00;100993.28;4981170;28;20225;-88
2022/05/14 01:27:24;;;;;;;10.75;5.38;;;12.40;99.90;;;11.24;100.00;100999.06;4971844;28;20474;-88
2022/05/14 01:29:52;;;;;;;13.45;5.28;;;12.40;99.90;;;11.24;100.00;101003.69;4979254;28;20561;-88
2022/05/14 01:32:20;;;;;;;12.18;5.78;;;12.30;99.90;;;11.25;100.00;101005.38;4973380;28;20129;-88
2022/05/14 01:34:47;;;;;;;9.50;5.00;;;12.30;99.90;;;11.26;100.00;101007.09;4972705;28;20050;-88
2022/05/14 01:37:18;;;;;;;11.65;5.13;;;12.30;99.90;;;11.25;100.00;101005.38;4984052;28;20390;-87
2022/05/14 01:39:46;;;;;;;8.52;4.82;;;12.30;99.90;;;11.25;100.00;101000.78;4988408;28;20042;-88
2022/05/14 01:42:13;;;;;;;10.93;5.15;;;12.30;99.90;;;11.23;100.00;101012.88;4969178;28;20043;-88
2022/05/14 01:44:43;;;;;;;11.55;5.13;;;12.30;99.90;;;11.21;100.00;101010.31;4962237;28;20134;-87
2022/05/14 01:47:11;;;;;;;12.88;5.57;;;12.30;99.90;;;11.20;100.00;101008.63;4984683;28;20078;-88
2022/05/14 01:49:39;;;;;;;12.00;5.70;;;12.40;99.90;;;11.20;100.00;101010.53;4991581;28;20057;-88
2022/05/14 01:52:08;;;;;;;12.52;5.55;;;12.40;99.90;;;11.21;100.00;101009.47;4975036;28;20059;-88
2022/05/14 01:54:36;;;;;;;10.88;5.47;;;12.40;99.90;;;11.20;100.00;101007.78;4971734;28;20137;-88
2022/05/14 01:57:05;;;;;;;13.00;6.30;;;12.30;99.90;;;11.18;100.00;101007.97;4983746;28;20059;-88
2022/05/14 01:59:32;;;;;;;14.50;5.90;;;12.40;99.90;;;11.19;100.00;101012.38;4971774;28;20066;-87
2022/05/14 02:02:01;;;;;;;13.50;6.38;;;12.40;99.90;;;11.17;100.00;101008.97;4965140;28;20122;-88
2022/05/14 02:04:29;;;;;;;11.73;5.68;;;12.40;99.90;;;11.17;100.00;100999.97;4996353;28;20515;-88
2022/05/14 02:06:57;;;;;;;12.15;5.90;;;12.40;99.90;;;11.13;100.00;100996.75;4977190;28;20463;-88
2022/05/14 02:09:24;;;;;;;16.15;6.00;;;12.40;99.90;;;11.18;100.00;100999.78;4971803;28;20047;-88
2022/05/14 02:11:56;;;;;;;13.75;6.03;;;12.40;99.90;;;11.18;100.00;100999.78;4969693;28;20530;-87
2022/05/14 02:14:31;;;;;;;14.30;5.72;;;12.30;99.90;;;11.15;100.00;101000.13;4968851;28;20057;-89
2022/05/14 02:17:00;;;;;;;13.73;6.10;;;12.30;99.90;;;11.12;100.00;101003.22;4983167;28;20047;-88
2022/05/14 02:19:30;;;;;;;12.55;6.28;;;12.30;99.90;;;11.11;100.00;101004.25;4965724;28;20250;-89
2022/05/14 02:21:57;;;;;;;13.65;6.18;;;12.30;99.90;;;11.12;100.00;101003.22;4987052;28;20058;-87
2022/05/14 02:24:24;;;;;;;14.32;6.30;;;12.30;99.90;;;11.11;100.00;100998.78;4991178;28;20384;-88
2022/05/14 02:26:51;;;;;;;13.23;5.97;;;12.30;99.90;;;11.10;100.00;101002.53;4974179;28;20051;-87
2022/05/14 02:29:19;;;;;;;13.02;5.70;;;12.30;99.90;;;11.09;100.00;101007.13;4971358;28;20051;-87
2022/05/14 02:31:47;;;;;;;14.73;6.35;;;12.30;99.90;;;10.99;100.00;101005.66;4975746;28;20074;-87
2022/05/14 02:34:15;;;;;;;13.45;6.15;;;12.30;99.90;;;10.99;100.00;101001.06;4990949;28;20042;-88
2022/05/14 02:36:43;;;;;;;13.27;6.03;;;12.20;99.90;;;10.99;100.00;101005.66;4973568;28;20042;-88
2022/05/14 02:39:11;;;;;;;16.65;6.30;;;12.20;99.90;;;10.95;100.00;101006.00;4986603;28;20062;-87
2022/05/14 02:41:38;;;;;;;16.67;6.53;;;12.20;99.90;;;10.99;100.00;101024.72;4968047;28;20043;-88
2022/05/14 02:44:06;;;;;;;19.98;6.75;;;12.20;99.90;;;10.98;100.00;101014.84;4953795;28;20122;-88
2022/05/14 02:46:33;;;;;;;17.58;5.90;;;12.20;99.90;;;11.02;100.00;101011.59;4960447;28;20478;-88
2022/05/14 02:49:01;;;;;;;12.05;5.30;;;12.30;99.90;;;10.96;100.00;101015.84;4970966;28;20046;-88
2022/05/14 02:51:30;;;;;;;15.32;5.75;;;12.20;99.90;;;10.94;100.00;101015.19;4971473;28;20039;-88
2022/05/14 02:53:57;;;;;;;12.20;5.88;;;12.20;99.90;;;10.90;100.00;101015.72;4980930;28;20102;-88
2022/05/14 02:56:25;;;;;;;19.00;6.00;;;12.20;99.90;;;10.92;100.00;101019.94;4979178;28;20039;-88
2022/05/14 02:59:08;;;;;;;10.73;5.15;;;12.20;99.90;;;10.94;100.00;101025.22;4976604;28;20042;-88
2022/05/14 03:01:47;;;;;;;10.98;5.60;;;12.20;99.90;;;10.93;100.00;101020.81;4999350;23;20054;-88
2022/05/14 03:04:18;;;;;;;13.80;5.45;;;12.20;99.90;;;10.88;100.00;101015.88;4986981;28;20224;-88
2022/05/14 03:06:47;;;;;;;14.80;5.65;;;12.20;99.90;;;10.89;100.00;101014.00;4972396;28;20596;-88
2022/05/14 03:09:14;;;;;;;16.00;5.72;;;12.20;99.90;;;10.89;100.00;101017.59;4979458;28;20038;-87
2022/05/14 03:11:42;;;;;;;12.43;5.38;;;12.20;99.90;;;10.89;100.00;101016.72;4989450;28;20084;-87
2022/05/14 03:14:10;;;;;;;12.13;5.50;;;12.20;99.90;;;10.86;100.00;101007.03;5006151;28;20073;-89
2022/05/14 03:16:37;;;;;;;13.02;5.72;;;12.20;99.90;;;10.88;100.00;101015.03;4994625;28;20442;-87
2022/05/14 03:19:05;;;;;;;11.10;5.63;;;12.20;99.90;;;10.84;100.00;101006.38;4989709;28;20462;-87
2022/05/14 03:21:32;;;;;;;16.20;5.57;;;12.20;99.90;;;10.82;100.00;101010.31;4989927;28;20066;-88
2022/05/14 03:24:02;;;;;;;15.20;5.47;;;12.20;99.90;;;10.78;100.00;101004.34;4979751;28;20047;-88
2022/05/14 03:26:29;;;;;;;10.95;5.43;;;12.20;99.90;;;10.80;100.00;101013.19;4972634;28;20643;-88
2022/05/14 03:28:57;;;;;;;14.32;6.10;;;12.20;99.90;;;10.69;100.00;101003.50;4985379;28;20045;-88
2022/05/14 03:31:24;;;;;;;13.68;5.05;;;12.20;99.90;;;10.71;100.00;101006.91;4998415;28;20509;-88
2022/05/14 03:33:52;;;;;;;10.25;5.28;;;12.20;99.90;;;10.79;100.00;101006.03;5000222;28;20089;-87
2022/05/14 03:36:22;;;;;;;13.35;5.30;;;12.20;99.90;;;10.81;100.00;101009.44;4989811;28;20046;-90
2022/05/14 03:38:58;;;;;;;10.38;4.88;;;12.10;99.90;;;10.75;100.00;101004.69;4982837;28;20043;-91
2022/05/14 03:41:28;;;;;;;11.52;5.07;;;12.10;99.90;;;10.76;100.00;101007.25;4969878;28;20043;-89
2022/05/14 03:43:57;;;;;;;12.73;4.90;;;12.10;99.90;;;10.76;100.00;101009.97;4980056;28;20133;-88
2022/05/14 03:46:24;;;;;;;12.70;4.63;;;12.10;99.90;;;10.75;100.00;101001.97;4991058;28;20100;-88
2022/05/14 03:48:52;;;;;;;11.93;4.88;;;12.10;99.90;;;10.75;100.00;101005.53;5001484;28;20117;-88
2022/05/14 03:51:20;;;;;;;14.18;5.32;;;12.10;99.90;;;10.76;100.00;101012.69;5010450;28;20124;-90
2022/05/14 03:53:48;;;;;;;13.27;5.03;;;12.00;99.90;;;10.74;100.00;101012.00;5000210;28;20043;-88
2022/05/14 03:56:16;;;;;;;8.68;4.80;;;12.00;99.90;;;10.75;100.00;101010.13;4969964;28;20054;-88
2022/05/14 03:58:45;;;;;;;12.32;5.07;;;12.00;99.90;;;10.76;100.00;101020.00;4979559;28;20499;-88
2022/05/14 04:01:12;;;;;;;9.48;4.32;;;12.00;99.90;;;10.75;100.00;101018.31;4988077;28;20527;-88
2022/05/14 04:03:40;;;;;;;10.63;4.43;;;12.00;99.90;;;10.76;100.00;101020.84;4991786;28;20052;-89
2022/05/14 04:06:08;;;;;;;10.38;4.20;;;12.00;99.90;;;10.74;100.00;101013.91;5009217;28;20061;-89
2022/05/14 04:08:37;;;;;;;11.70;4.45;;;12.00;99.90;;;10.72;100.00;101024.09;4998392;28;20046;-89
2022/05/14 04:11:05;;;;;;;11.45;4.50;;;12.00;99.90;;;10.69;100.00;101017.13;4988383;28;20076;-88
2022/05/14 04:13:34;;;;;;;9.50;4.70;;;12.10;99.90;;;10.71;100.00;101019.69;4996308;28;20049;-88
2022/05/14 04:16:05;;;;;;;11.80;4.45;;;12.00;99.90;;;10.76;100.00;101017.28;4969776;28;20401;-89
2022/05/14 04:18:33;;;;;;;13.18;4.43;;;12.10;99.90;;;10.73;100.00;101023.06;4977951;28;20537;-89
2022/05/14 04:21:02;;;;;;;10.30;4.00;;;12.10;99.90;;;10.75;100.00;101026.47;5010036;28;20034;-88
2022/05/14 04:23:33;;;;;;;12.45;4.68;;;12.10;99.90;;;10.73;100.00;101025.78;4983204;28;20043;-92
2022/05/14 04:26:03;;;;;;;7.40;3.60;;;12.10;99.90;;;10.72;100.00;101032.28;4971527;28;20069;-89
2022/05/14 04:28:30;;;;;;;12.13;4.60;;;12.10;99.90;;;10.70;100.00;101028.84;4984315;28;20054;-88
2022/05/14 04:30:59;;;;;;;9.75;4.22;;;12.10;99.90;;;10.77;100.00;101027.13;4989835;28;20356;-88
2022/05/14 04:33:29;;;;;;;17.50;3.83;;;12.10;99.90;;;10.73;100.00;101034.81;4987816;28;20050;-87
2022/05/14 04:35:56;;;;;;;13.27;4.30;;;12.20;99.90;;;10.76;100.00;101033.63;5000767;28;20396;-90
2022/05/14 04:38:26;;;;;;;9.32;3.97;;;12.20;99.90;;;10.79;100.00;101038.69;4991231;28;20046;-89
2022/05/14 04:40:53;;;;;;;15.77;4.57;;;12.20;99.90;;;10.83;100.00;101034.59;4989056;28;20129;-88
2022/05/14 04:43:24;;;;;;;13.05;3.72;;;12.20;99.90;;;10.88;100.00;101032.22;4988446;28;20047;-89
2022/05/14 04:45:51;;;;;;;9.15;3.10;;;12.30;99.90;;;10.87;100.00;101037.84;4988542;28;20046;-89
2022/05/14 04:48:18;;;;;;;10.63;3.85;;;12.40;99.90;;;10.84;100.00;101035.47;4976636;28;20070;-88
2022/05/14 04:50:47;;;;;;;9.80;3.88;;;12.40;99.90;;;10.85;100.00;101038.03;4993457;28;20064;-89
2022/05/14 04:53:15;;;;;;;10.77;3.42;;;12.50;99.90;;;10.83;100.00;101047.38;4989126;28;20054;-88
2022/05/14 04:55:43;;;;;;;12.57;3.42;;;12.60;99.90;;;10.93;100.00;101046.19;4988877;28;20049;-89
2022/05/14 04:58:12;;;;;;;9.75;3.80;;;12.70;99.90;;;11.09;100.00;101047.16;4983920;28;20038;-89
2022/05/14 05:00:41;;;;;;;8.57;3.60;;;12.70;99.90;;;11.19;100.00;101046.94;4985422;28;20034;-88
2022/05/14 05:03:19;;;;;;;10.45;3.65;;;12.90;99.90;;;11.27;100.00;101058.69;4977211;28;20121;-88
2022/05/14 05:05:56;;;;;;;8.45;3.08;;;12.90;99.90;;;11.28;100.00;101054.91;4969512;28;20061;-85
2022/05/14 05:08:31;;;;;;;13.65;3.33;;;13.00;99.90;;;11.40;100.00;101057.25;4998529;28;20046;-88
2022/05/14 05:11:01;;;;;;;9.38;3.30;;;13.00;99.90;;;11.45;100.00;101063.03;4981097;28;20054;-87
2022/05/14 05:13:59;;;;;;;9.73;3.43;;;13.10;99.90;;;11.50;100.00;101060.63;4988242;28;20046;-89
2022/05/14 05:16:27;;;;;;;11.82;3.08;;;13.10;99.90;;;11.58;100.00;101065.19;4972232;28;20393;-88
2022/05/14 05:18:54;;;;;;;7.38;3.42;;;13.20;99.90;;;11.61;100.00;101062.94;4972516;28;20574;-88
2022/05/14 05:21:35;;;;;;;10.48;3.65;;;13.20;99.90;;;11.67;100.00;101069.56;4980035;28;20573;-92
2022/05/14 05:24:05;;;;;;;10.32;3.42;;;13.30;99.90;;;11.72;100.00;101070.72;4981392;28;20030;-89
2022/05/14 05:26:33;;;;;;;11.75;3.22;;;13.40;99.90;;;11.79;100.00;101072.75;4986680;28;20039;-89
2022/05/14 05:29:00;;;;;;;10.15;3.60;;;13.50;99.90;;;11.83;100.00;101071.38;4988578;28;20117;-88
2022/05/14 05:31:27;;;;;;;10.90;3.67;;;13.50;99.90;;;11.88;100.00;101077.13;4990550;28;20136;-89
2022/05/14 05:33:55;;;;;;;8.23;3.67;;;13.50;99.90;;;11.93;100.00;101081.03;4992056;28;20494;-89
2022/05/14 05:36:22;;;;;;;9.65;3.05;;;13.60;99.90;;;11.94;100.00;101073.72;4991582;28;20165;-89
2022/05/14 05:38:51;;;;;;;12.00;3.58;;;13.60;99.90;;;11.98;99.88;101072.31;4995951;28;20506;-88
2022/05/14 05:41:19;;;;;;;9.98;3.40;;;13.70;99.90;;;12.02;100.00;101070.94;5004666;28;20038;-87
2022/05/14 05:43:46;;;;;;;11.93;3.90;;;13.80;99.90;;;12.07;98.41;101079.44;5012760;28;20076;-88
2022/05/14 05:46:14;;;;;;;14.95;4.20;;;13.80;99.90;;;12.06;97.20;101077.72;4994116;28;20039;-88
2022/05/14 05:48:43;;;;;;;9.02;3.60;;;13.90;99.90;;;12.09;99.02;101085.56;4992740;28;20042;-88
2022/05/14 05:51:11;;;;;;;11.40;4.10;;;13.90;99.90;;;12.16;99.59;101085.66;5002133;28;20049;-88
2022/05/14 05:59:11;;;;;;;14.85;5.05;;;14.10;99.90;;;12.33;97.10;101098.16;4997298;28;20042;-88
2022/05/14 06:01:39;;;;;;;16.35;4.90;;;14.20;99.90;;;12.47;98.42;101088.34;4991029;28;20462;-89
2022/05/14 06:04:07;;;;;;;13.63;4.75;;;14.40;99.90;;;12.53;98.13;101092.22;4992926;28;20046;-89
2022/05/14 06:06:34;;;;;;;14.02;5.20;;;14.50;99.90;;;12.60;95.58;101086.88;4992108;28;20046;-89
2022/05/14 06:09:02;;;;;;;13.90;4.55;;;14.50;99.90;;;12.65;97.18;101081.72;4992686;28;20034;-89
2022/05/14 06:11:31;;;;;;;13.70;4.45;;;14.70;99.90;;;12.76;95.53;101091.34;4994909;28;20138;-90
2022/05/14 06:13:58;;;;;;;14.40;4.82;;;14.70;99.90;;;12.83;95.88;101093.16;5002802;28;20463;-89
2022/05/14 06:16:26;;;;;;;15.23;4.70;;;14.90;99.90;;;12.89;95.75;101086.94;5010649;28;20502;-90
2022/05/14 06:18:54;;;;;;;11.00;4.63;;;14.90;99.90;;;12.94;94.46;101091.84;5010381;28;20046;-88
2022/05/14 06:21:21;;;;;;;18.15;4.85;;;15.00;99.90;;;12.98;94.71;101092.31;4996182;28;20042;-88
2022/05/14 06:23:49;;;;;;;11.68;4.40;;;15.00;99.80;;;13.03;93.26;101100.81;4991127;28;20054;-88
2022/05/14 06:26:16;;;;;;;15.02;4.53;;;15.10;99.20;;;13.14;94.43;101094.91;4991613;28;20035;-87
2022/05/14 06:28:45;;;;;;;15.85;5.07;;;15.30;99.60;;;13.22;92.68;101097.53;5000164;28;20042;-88
2022/05/14 06:31:12;;;;;;;12.60;4.78;;;15.40;98.20;;;13.32;92.16;101091.81;4994989;28;20039;-87
2022/05/14 06:33:39;;;;;;;15.15;5.00;;;15.50;98.20;;;13.45;91.85;101089.25;4992228;28;20042;-87
2022/05/14 06:36:07;;;;;;;16.02;5.68;;;15.60;97.90;;;13.52;93.08;101094.84;4992844;28;20077;-88
2022/05/14 06:38:34;;;;;;;17.55;5.68;;;15.80;98.50;;;13.61;92.39;101096.44;4996453;28;20119;-87
2022/05/14 06:41:06;;;;;;;12.45;5.38;;;15.90;97.30;;;13.71;92.38;101098.00;4985073;28;20105;-87
2022/05/14 06:43:33;;;;;;;15.90;6.00;;;16.00;97.40;;;13.79;89.97;101093.28;4992020;28;20153;-87
2022/05/14 06:46:03;;;;;;;20.60;6.55;;;16.10;95.70;;;13.93;91.12;101104.38;4989768;28;20046;-88
2022/05/14 06:48:31;;;;;;;16.27;6.60;;;16.20;96.30;;;14.03;90.56;101104.91;4989677;28;20039;-89
2022/05/14 06:51:02;;;;;;;17.83;6.22;;;16.30;95.80;;;14.10;91.50;101099.53;4982328;28;20042;-89
2022/05/14 06:53:33;;;;;;;20.45;7.32;;;16.40;96.60;;;14.22;90.92;101098.84;4977764;28;20087;-91
2022/05/14 06:56:02;;;;;;;19.98;6.53;;;16.50;96.20;;;14.31;88.22;101101.44;5000846;28;20050;-87
2022/05/14 06:58:36;;;;;;;19.02;6.65;;;16.50;94.70;;;14.39;89.25;101093.97;4995389;28;20042;-86
2022/05/14 07:01:33;;;;;;;21.90;7.43;;;16.60;95.20;;;14.50;87.52;101105.41;4991953;28;20108;-94
2022/05/14 07:06:50;;;;;;;22.42;8.23;;;16.80;95.20;;;14.84;86.09;101112.94;4972031;28;20051;-85
2022/05/14 07:09:22;;;;;;;17.85;7.22;;;16.90;94.50;;;14.84;86.39;101113.75;4971120;28;20073;-85
2022/05/14 07:11:53;;;;;;;21.70;7.80;;;17.00;94.00;;;14.86;86.28;101111.66;5000394;28;20313;-83
2022/05/14 07:14:21;;;;;;;;;;;17.10;93.50;;;14.87;86.97;101123.50;4996836;28;20126;-83
2022/05/14 07:16:50;;;;;;;20.88;7.07;;;17.20;93.50;;;14.85;87.63;101120.13;5004172;28;20168;-84
2022/05/14 07:19:18;;;;;;;22.10;7.80;;;17.20;93.90;;;14.86;88.96;101122.63;5001943;28;20050;-84
2022/05/14 07:21:48;;;;;;;25.17;7.20;;;17.20;94.70;;;14.88;88.81;101116.97;4979513;28;20124;-85
2022/05/14 07:24:17;;;;;;;23.08;6.90;;;17.20;94.40;;;14.86;85.96;101114.41;4991582;28;20100;-84
2022/05/14 07:26:46;;;;;;;19.15;6.90;;;17.30;93.40;;;14.89;88.08;101120.53;4980049;28;20134;-83
2022/05/14 07:29:18;;;;;;;24.45;9.25;;;17.30;94.00;;;14.96;88.54;101114.06;4988594;28;20089;-83
2022/05/14 07:31:45;;;;;;;;;;;17.30;94.80;;;14.97;88.75;101115.78;4996113;28;20506;-88
2022/05/14 07:34:13;;;;;;;63.72;18.95;;;17.30;94.10;;;15.03;90.26;101116.88;5007151;28;19921;-83
2022/05/14 07:36:47;;;;;;;24.73;9.63;;;17.40;94.90;;;15.08;89.37;101114.38;4989787;28;20042;-84
2022/05/14 07:39:15;;;;;;;21.55;8.93;;;17.40;94.70;;;15.07;89.46;101117.31;4987342;28;20052;-85
2022/05/14 07:41:48;;;;;;;28.33;11.13;;;17.40;94.80;;;15.08;90.37;101110.78;4987597;28;20257;-86
2022/05/14 07:44:21;;;;;;;30.65;10.63;;;17.40;95.20;;;15.13;90.73;101100.06;4990098;28;20050;-88
2022/05/14 07:46:49;;;;;;;38.30;13.88;;;17.40;95.70;;;15.18;89.32;101103.91;4991129;28;20046;-87
2022/05/14 07:49:36;;;;;;;21.55;7.45;;;17.40;95.30;;;15.12;89.69;101101.13;4996822;28;20073;-87
2022/05/14 07:52:05;;;;;;;21.23;6.90;;;17.40;95.20;;;15.19;89.36;101104.75;4995323;28;20049;-89
2022/05/14 07:54:34;;;;;;;32.08;7.38;;;17.40;95.00;;;15.17;91.06;101096.75;4989449;28;20073;-89
2022/05/14 07:57:02;;;;;;;15.07;5.95;;;17.40;95.60;;;15.20;90.83;101096.31;4989486;28;20081;-88
2022/05/14 07:59:29;;;;;;;16.88;5.38;;;17.50;95.80;;;15.30;90.49;101106.94;4979620;28;20049;-87
2022/05/14 08:01:57;;;;;;;19.52;5.18;;;17.50;95.30;;;15.33;88.62;101111.19;4985866;28;20068;-89
2022/05/14 08:04:24;;;;;;;21.25;5.65;;;17.50;94.60;;;15.25;89.47;101104.81;4984760;28;20065;-90
2022/05/14 08:06:53;;;;;;;15.20;4.70;;;17.50;95.00;;;15.28;90.85;101102.69;4995266;28;20085;-90
2022/05/14 08:09:20;;;;;;;15.80;5.28;;;17.60;95.70;;;15.42;88.00;101101.72;4986925;28;20053;-87
2022/05/14 08:11:47;;;;;;;17.63;5.63;;;17.60;94.30;;;15.37;88.80;101096.84;4981494;28;20045;-87
2022/05/14 08:14:15;;;;;;;13.07;4.45;;;17.60;94.80;;;15.52;87.54;101098.63;4983980;28;20050;-87
2022/05/14 08:16:42;;;;;;;14.43;4.97;;;17.60;94.00;;;15.56;87.76;101103.50;4979854;28;20038;-86
2022/05/14 08:19:10;;;;;;;20.75;5.57;;;17.60;94.50;;;15.61;87.33;101109.22;4980415;28;20141;-88
2022/05/14 08:24:38;;;;;;;13.75;4.45;;;17.70;94.10;;;15.64;86.42;101100.56;4944189;29;20127;-87
2022/05/14 08:27:08;;;;;;;15.90;5.20;;;17.70;93.70;;;15.60;87.08;101107.53;4913622;29;20428;-87
2022/05/14 08:29:36;;;;;;;18.17;4.78;;;17.70;94.00;;;15.47;87.36;101107.44;4950891;28;20058;-88
2022/05/14 08:32:04;;;;;;;16.75;5.32;;;17.70;93.90;;;15.52;87.70;101102.22;4983192;28;20226;-89
2022/05/14 08:34:32;;;;;;;12.80;4.78;;;17.70;94.00;;;15.59;87.19;101097.63;4989064;28;20101;-89
2022/05/14 08:37:00;;;;;;;15.05;4.82;;;17.80;94.10;;;15.57;88.21;101099.72;4988141;28;20061;-89
2022/05/14 08:39:28;;;;;;;16.17;4.68;;;17.80;94.20;;;15.57;88.59;101099.72;4981798;28;20046;-90
2022/05/14 08:41:58;;;;;;;14.75;4.47;;;17.80;94.20;;;15.61;88.08;101111.09;4990609;28;20046;-90
2022/05/14 08:44:32;;;;;;;16.95;5.05;;;17.80;94.10;;;15.63;88.96;101118.09;4986808;28;20043;-88
2022/05/14 08:47:04;;;;;;;11.15;4.22;;;17.80;94.70;;;15.74;88.39;101107.63;4988400;28;20427;-88
2022/05/14 08:49:37;;;;;;;14.52;4.85;;;17.90;94.80;;;15.73;89.04;101106.78;4988698;28;20144;-88
2022/05/14 08:52:12;;;;;;;13.52;4.97;;;17.90;94.90;;;15.70;89.17;101101.66;4990018;28;20097;-88
2022/05/14 08:54:39;;;;;;;15.50;4.82;;;17.90;95.00;;;15.72;89.83;101101.47;4988335;28;20042;-89
2022/05/14 08:57:19;;;;;;;16.23;4.22;;;17.90;95.30;;;15.71;89.92;101103.38;4998027;28;20474;-89
2022/05/14 08:59:55;;;;;;;16.90;4.65;;;17.90;95.20;;;15.71;89.37;101108.00;4987370;28;20052;-89
2022/05/14 09:15:59;;;;;;;12.82;4.00;;;17.90;96.30;;;15.81;92.13;101090.13;979779;23;21106;-90
2022/05/14 09:18:46;;;;;;;15.02;4.90;;;17.90;96.50;;;15.90;89.94;101089.97;4974501;28;20053;-93
2022/05/14 09:21:22;;;;;;;13.32;4.28;;;17.90;95.80;;;15.98;88.62;101087.03;4973266;28;20043;-89
2022/05/14 09:23:56;;;;;;;13.02;4.25;;;17.90;95.20;;;16.00;89.51;101096.75;4974248;28;20563;-92
2022/05/14 09:26:32;;;;;;;14.73;4.32;;;18.00;95.70;;;15.86;90.42;101095.03;4975741;28;20134;-91
2022/05/14 09:29:14;;;;;;;15.75;4.88;;;18.00;95.80;;;16.06;88.36;101088.75;4975351;28;20057;-93
2022/05/14 09:31:53;;;;;;;;;;;18.00;95.40;;;15.89;90.48;101083.59;4974845;28;20055;-93
2022/05/14 09:34:22;;;;;;;13.75;4.55;;;18.00;96.00;;;15.89;91.26;101082.78;4974870;28;19922;-93
2022/05/14 09:36:51;;;;;;;15.02;4.78;;;18.00;96.20;;;15.86;90.89;101084.03;4975689;28;20065;-93
2022/05/14 09:39:22;;;;;;;16.98;4.68;;;18.00;96.20;;;15.89;90.46;101086.34;4975180;28;20410;-93
2022/05/14 09:41:52;;;;;;;15.98;4.28;;;18.00;95.80;;;16.03;89.97;101081.78;4974404;28;20202;-93
2022/05/14 09:44:24;;;;;;;17.25;4.65;;;18.10;96.00;;;15.98;89.68;101087.88;4974302;28;20142;-93
2022/05/14 09:47:05;;;;;;;11.77;4.63;;;18.10;95.70;;;16.11;89.60;101080.75;4975821;28;20042;-92
2022/05/14 09:49:33;;;;;;;19.75;4.68;;;18.00;95.50;;;16.06;89.44;101091.47;4975790;28;20141;-93
2022/05/14 09:52:06;;;;;;;19.75;5.05;;;18.00;95.20;;;16.02;88.91;101094.63;4970829;28;20046;-92
2022/05/14 09:54:42;;;;;;;14.65;4.95;;;18.10;95.10;;;16.04;89.52;101086.19;4991043;28;20423;-92
2022/05/14 09:57:32;;;;;;;20.13;5.35;;;18.10;95.70;;;16.21;89.46;101081.16;4975412;28;20053;-95
2022/05/14 10:00:12;;;;;;;17.42;4.72;;;18.20;95.60;;;16.20;89.00;101071.22;4968731;28;20051;-93
2022/05/14 10:03:15;;;;;;;14.15;4.78;;;18.20;95.50;;;16.27;89.94;101085.81;4975517;28;20054;-94
2022/05/14 10:06:01;;;;;;;12.75;4.35;;;18.20;95.70;;;16.28;90.24;101086.66;4974704;28;20061;-94
2022/05/14 10:09:00;;;;;;;17.27;4.40;;;18.30;95.80;;;16.39;90.02;101078.69;4976077;28;20051;-93
2022/05/14 10:11:34;;;;;;;12.00;4.05;;;18.30;95.90;;;16.41;89.05;101079.31;4974737;28;20435;-95
2022/05/14 10:14:21;;;;;;;23.98;5.03;;;18.40;95.50;;;16.38;91.91;101076.97;4973360;28;20046;-90
2022/05/14 10:17:15;;;;;;;18.70;4.70;;;18.40;96.20;;;16.49;89.79;101089.25;4972141;28;20058;-93
2022/05/14 10:20:35;;;;;;;16.08;4.88;;;18.50;95.70;;;16.38;89.95;101087.97;4989277;28;20050;-92
2022/05/14 10:29:36;;;;;;;15.02;4.38;;;18.50;94.50;;;16.55;87.29;101082.91;4973888;28;20051;-90
2022/05/14 10:32:05;;;;;;;;;;;18.50;94.00;;;16.49;88.79;101078.25;4973258;28;20499;-90
2022/05/14 10:34:46;;;;;;;12.85;4.30;;;18.60;94.80;;;16.51;89.07;101078.91;4972668;28;20709;-90
2022/05/14 10:37:28;;;;;;;17.65;5.10;;;18.70;94.70;;;16.59;90.62;101077.84;4972671;28;20082;-91
2022/05/14 10:40:08;;;;;;;15.05;3.97;;;18.70;95.50;;;16.63;89.97;101089.25;4972661;28;20046;-92
2022/05/14 10:42:51;;;;;;;17.98;5.28;;;18.80;95.00;;;16.80;89.30;101085.03;4971795;28;20043;-91
2022/05/14 10:45:22;;;;;;;11.68;4.28;;;18.90;94.70;;;16.84;86.27;101086.31;4972318;28;20051;-91
2022/05/14 10:48:04;;;;;;;15.15;4.35;;;19.00;93.60;;;16.77;86.39;101089.06;4973969;28;20049;-91
2022/05/14 10:50:33;;;;;;;12.50;4.30;;;18.90;93.10;;;16.77;85.74;101090.94;4953721;28;20062;-90
2022/05/14 10:53:08;;;;;;;24.10;4.65;;;18.90;92.90;;;16.93;86.16;101089.72;4953994;28;20051;-92
2022/05/14 10:55:47;;;;;;;10.55;3.22;;;19.00;92.80;;;16.96;85.18;101087.41;4971303;28;20043;-91
2022/05/14 10:58:35;;;;;;;10.68;3.80;;;19.10;92.10;;;16.95;79.50;101087.59;4985467;28;20114;-90